Time;durP1;ratioP1;P1;durP2;ratioP2;P2;SDS_P1;SDS_P2;PMS_P1;PMS_P2;Temp;Humidity;BMP_temperature;BMP_pressure;BME280_temperature;BME280_humidity;BME280_pressure;Samples;Min_cycle;Max_cycle;Signal;HPM_P1;HPM_P2
2024/03/21 00:00:10;;;;;;;31.70;18.38;;;11.80;34.10;;;;;;6280052;22;39602;-79
2024/03/21 00:02:38;;;;;;;25.20;16.33;;;11.80;29.50;;;;;;6297237;22;38513;-78
2024/03/21 00:05:06;;;;;;;24.90;15.57;;;11.80;28.60;;;;;;6299236;22;37948;-79
2024/03/21 00:07:33;;;;;;;24.15;15.60;;;11.80;29.00;;;;;;6285526;22;38474;-78
2024/03/21 00:10:00;;;;;;;28.23;15.00;;;11.70;25.30;;;;;;6292064;22;38978;-77
2024/03/21 00:12:26;;;;;;;24.60;15.23;;;11.70;24.10;;;;;;6289030;22;38686;-79
2024/03/21 00:14:53;;;;;;;24.02;15.15;;;11.70;19.20;;;;;;6282724;22;39229;-78
2024/03/21 00:17:19;;;;;;;29.02;16.10;;;11.70;19.40;;;;;;6281377;22;37799;-78
2024/03/21 00:19:45;;;;;;;31.48;18.00;;;11.70;20.00;;;;;;6282335;22;39739;-78
2024/03/21 00:22:11;;;;;;;31.27;17.60;;;11.70;17.90;;;;;;6278879;22;39189;-78
2024/03/21 00:24:44;;;;;;;24.17;16.08;;;11.70;15.20;;;;;;6280730;22;37752;-81
2024/03/21 00:27:10;;;;;;;;;;;11.70;13.10;;;;;;6277896;22;36254;-78
2024/03/21 00:29:36;;;;;;;27.48;16.00;;;11.70;10.40;;;;;;6278532;22;37906;-78
2024/03/21 00:32:02;;;;;;;27.73;15.77;;;11.70;9.60;;;;;;6280461;22;39751;-78
2024/03/21 00:34:28;;;;;;;25.58;15.07;;;11.70;11.10;;;;;;6279196;22;40297;-78
2024/03/21 00:36:54;;;;;;;22.98;15.93;;;11.70;8.80;;;;;;6279121;22;37945;-78
2024/03/21 00:39:20;;;;;;;20.35;12.10;;;11.70;14.90;;;;;;6280017;22;39272;-78
2024/03/21 00:41:47;;;;;;;19.30;11.52;;;11.70;10.30;;;;;;6281467;22;38990;-79
2024/03/21 00:44:13;;;;;;;23.48;12.38;;;11.70;12.30;;;;;;6280776;22;38426;-78
2024/03/21 00:46:39;;;;;;;18.30;11.75;;;11.80;6.80;;;;;;6279282;22;38314;-78
2024/03/21 00:49:06;;;;;;;17.98;12.65;;;11.90;1.40;;;;;;6279544;22;39904;-78
2024/03/21 00:51:33;;;;;;;22.02;13.75;;;11.90;1.70;;;;;;6280742;22;39724;-78
2024/03/21 00:54:00;;;;;;;24.60;14.23;;;12.00;1.00;;;;;;6280772;22;39363;-78
2024/03/21 00:56:26;;;;;;;23.27;14.32;;;12.00;1.00;;;;;;6277636;22;36269;-78
2024/03/21 00:58:57;;;;;;;18.92;13.77;;;12.00;1.00;;;;;;6281117;22;39413;-78
2024/03/21 01:01:25;;;;;;;27.30;13.98;;;12.00;1.00;;;;;;6278919;22;39387;-78
2024/03/21 01:03:51;;;;;;;17.67;12.55;;;12.00;1.00;;;;;;6280674;22;39121;-78
2024/03/21 01:06:17;;;;;;;20.67;13.80;;;12.00;1.00;;;;;;6278781;22;37145;-79
2024/03/21 01:08:44;;;;;;;22.50;15.10;;;11.90;1.00;;;;;;6279748;22;38967;-79
2024/03/21 01:11:10;;;;;;;25.25;16.33;;;11.90;1.00;;;;;;6280604;22;38785;-78
2024/03/21 01:13:38;;;;;;;25.88;17.10;;;11.80;1.00;;;;;;6280397;22;39224;-79
2024/03/21 01:16:08;;;;;;;31.63;17.23;;;11.80;5.20;;;;;;6278077;22;36291;-79
2024/03/21 01:18:38;;;;;;;25.02;16.45;;;11.70;4.40;;;;;;6279229;22;39849;-78
2024/03/21 01:21:05;;;;;;;33.45;17.27;;;11.60;10.70;;;;;;6276961;22;39427;-78
2024/03/21 01:23:32;;;;;;;32.78;17.50;;;11.60;21.00;;;;;;6278069;22;39246;-78
2024/03/21 01:25:59;;;;;;;28.67;17.95;;;11.60;32.10;;;;;;6277625;22;38071;-78
2024/03/21 01:28:25;;;;;;;35.95;19.08;;;11.60;46.50;;;;;;6279215;22;39923;-78
2024/03/21 01:30:51;;;;;;;33.97;21.45;;;11.60;50.30;;;;;;6276588;22;39253;-78
2024/03/21 01:33:18;;;;;;;36.97;22.00;;;11.60;61.00;;;;;;6277551;22;38553;-78
2024/03/21 01:35:45;;;;;;;43.67;23.83;;;11.50;60.60;;;;;;6276793;22;36580;-79
2024/03/21 01:38:13;;;;;;;36.67;23.00;;;11.50;70.50;;;;;;6276167;22;37811;-78
2024/03/21 01:40:40;;;;;;;34.78;23.42;;;11.40;81.30;;;;;;6276322;22;39443;-79
2024/03/21 01:43:24;;;;;;;39.10;25.33;;;11.40;87.80;;;;;;6276685;22;39536;-78
2024/03/21 01:46:07;;;;;;;46.17;26.38;;;11.30;92.80;;;;;;6274380;22;36437;-78
2024/03/21 01:48:34;;;;;;;41.00;25.70;;;11.30;96.90;;;;;;6277315;22;48834;-78
2024/03/21 01:51:00;;;;;;;42.50;25.90;;;11.20;98.60;;;;;;6276265;22;37844;-78
2024/03/21 01:53:28;;;;;;;42.33;26.58;;;11.20;99.90;;;;;;6273353;22;40451;-78
2024/03/21 01:55:59;;;;;;;45.00;26.10;;;11.20;99.90;;;;;;6273692;22;36285;-79
2024/03/21 01:58:25;;;;;;;50.63;28.63;;;11.20;99.90;;;;;;6277871;22;39679;-78
2024/03/21 02:06:27;;;;;;;45.60;27.20;;;11.10;99.90;;;;;;6319308;22;20012;-80
2024/03/21 02:08:54;;;;;;;37.20;25.23;;;11.10;99.90;;;;;;6290883;22;38995;-81
2024/03/21 02:11:22;;;;;;;40.25;24.23;;;11.10;99.90;;;;;;6290452;22;38892;-81
2024/03/21 02:13:52;;;;;;;41.22;26.98;;;11.10;99.90;;;;;;6292933;22;37448;-80
2024/03/21 02:16:21;;;;;;;42.72;25.63;;;11.10;99.90;;;;;;6290888;22;38084;-80
2024/03/21 02:18:48;;;;;;;42.67;27.55;;;11.10;99.90;;;;;;6289825;22;37800;-80
2024/03/21 02:24:00;;;;;;;40.75;27.48;;;11.00;99.90;;;;;;6329720;22;39399;-80
2024/03/21 02:26:26;;;;;;;42.03;27.00;;;11.00;99.90;;;;;;6300362;22;37217;-80
2024/03/21 02:28:53;;;;;;;43.75;27.67;;;11.00;99.90;;;;;;6300959;22;38858;-79
2024/03/21 02:31:20;;;;;;;46.47;28.77;;;11.00;99.90;;;;;;6325573;22;40462;-79
2024/03/21 02:33:47;;;;;;;37.72;24.70;;;11.00;99.90;;;;;;6327575;22;38426;-80
2024/03/21 02:36:13;;;;;;;39.92;24.73;;;11.00;99.90;;;;;;6299419;22;37465;-79
2024/03/21 02:38:40;;;;;;;35.40;22.48;;;10.90;99.90;;;;;;6327502;22;39627;-79
2024/03/21 02:41:06;;;;;;;34.33;20.00;;;11.00;99.90;;;;;;6281101;22;40681;-80
2024/03/21 02:43:32;;;;;;;27.58;18.75;;;11.00;99.90;;;;;;6301641;22;38050;-80
2024/03/21 02:46:01;;;;;;;23.63;16.45;;;10.90;99.90;;;;;;6327803;22;37829;-80
2024/03/21 02:48:30;;;;;;;23.45;15.35;;;10.90;99.90;;;;;;6326604;22;48698;-80
2024/03/21 02:50:56;;;;;;;23.33;16.00;;;10.80;99.90;;;;;;6326180;22;39163;-80
2024/03/21 02:53:22;;;;;;;23.90;15.82;;;10.80;99.90;;;;;;6297182;22;37464;-81
2024/03/21 02:55:48;;;;;;;20.33;15.30;;;10.70;99.90;;;;;;6296403;22;39000;-81
2024/03/21 02:58:14;;;;;;;22.50;15.20;;;10.60;99.90;;;;;;6294622;22;39628;-80
2024/03/21 03:00:40;;;;;;;19.87;14.60;;;10.50;99.90;;;;;;6295413;22;39131;-79
2024/03/21 03:03:07;;;;;;;18.20;13.70;;;10.50;99.90;;;;;;6323030;22;38381;-79
2024/03/21 03:05:40;;;;;;;20.05;13.90;;;10.40;99.90;;;;;;6295454;22;39170;-80
2024/03/21 03:08:07;;;;;;;22.67;14.13;;;10.40;99.90;;;;;;6295527;22;38042;-80
2024/03/21 03:10:33;;;;;;;21.60;13.33;;;10.30;99.90;;;;;;6297835;22;37914;-80
2024/03/21 03:12:59;;;;;;;21.98;12.02;;;10.30;99.90;;;;;;6298212;22;37476;-81
2024/03/21 03:15:26;;;;;;;15.63;11.32;;;10.30;99.90;;;;;;6296305;22;37558;-80
2024/03/21 03:17:52;;;;;;;21.50;13.05;;;10.30;99.90;;;;;;6300119;22;40880;-79
2024/03/21 03:20:18;;;;;;;19.83;12.05;;;10.20;99.90;;;;;;6301229;22;38376;-82
2024/03/21 03:22:45;;;;;;;20.27;14.23;;;10.20;99.90;;;;;;6299851;22;37650;-79
2024/03/21 03:25:11;;;;;;;16.70;14.77;;;10.10;99.90;;;;;;6326191;22;37784;-80
2024/03/21 03:27:37;;;;;;;20.95;15.00;;;10.00;99.90;;;;;;6295894;22;38860;-80
2024/03/21 03:30:04;;;;;;;23.97;16.23;;;10.00;99.90;;;;;;6306209;22;39198;-80
2024/03/21 03:32:32;;;;;;;17.60;13.63;;;10.00;99.90;;;;;;6330546;22;38171;-80
2024/03/21 03:37:43;;;;;;;12.02;9.50;;;9.90;99.90;;;;;;6322321;22;49728;-80
2024/03/21 03:40:10;;;;;;;8.90;8.00;;;9.90;99.90;;;;;;6296245;22;37806;-80
2024/03/21 03:42:36;;;;;;;15.20;6.50;;;9.90;99.90;;;;;;6328439;22;38028;-80
2024/03/21 03:45:02;;;;;;;10.23;5.00;;;9.90;99.90;;;;;;6322395;22;37778;-80
2024/03/21 03:47:29;;;;;;;7.80;5.20;;;9.90;99.90;;;;;;6289505;22;38193;-80
2024/03/21 03:49:55;;;;;;;8.33;5.37;;;10.00;99.90;;;;;;6317947;22;39553;-80
2024/03/21 03:52:21;;;;;;;11.13;5.57;;;9.90;99.90;;;;;;6289111;22;39296;-79
2024/03/21 03:54:47;;;;;;;14.43;6.47;;;9.80;99.90;;;;;;6291839;22;37925;-80
2024/03/21 03:57:13;;;;;;;11.97;7.93;;;9.70;99.90;;;;;;6291009;22;38294;-79
2024/03/21 03:59:39;;;;;;;16.87;8.27;;;9.70;99.90;;;;;;6290500;22;39673;-80
2024/03/21 04:02:05;;;;;;;11.73;8.10;;;9.60;99.90;;;;;;6294206;22;37210;-79
2024/03/21 04:04:34;;;;;;;19.20;9.80;;;9.50;99.90;;;;;;6301316;22;37972;-79
2024/03/21 04:07:00;;;;;;;14.83;8.33;;;9.60;99.90;;;;;;6326018;22;39318;-80
2024/03/21 04:09:28;;;;;;;15.13;9.90;;;9.50;99.90;;;;;;6294587;22;20026;-80
2024/03/21 04:11:54;;;;;;;15.50;9.07;;;9.50;99.90;;;;;;6290865;22;37727;-80
2024/03/21 04:14:20;;;;;;;14.83;8.63;;;9.50;99.90;;;;;;6292361;22;36761;-80
2024/03/21 04:16:46;;;;;;;15.60;8.27;;;9.50;99.90;;;;;;6319565;22;38650;-80
2024/03/21 04:19:15;;;;;;;18.40;11.00;;;9.40;99.90;;;;;;6278003;22;38907;-81
2024/03/21 04:21:41;;;;;;;20.83;10.83;;;9.40;99.90;;;;;;6273813;22;40157;-81
2024/03/21 04:24:07;;;;;;;20.00;11.97;;;9.30;99.90;;;;;;6325796;22;38051;-80
2024/03/21 04:26:33;;;;;;;24.67;14.63;;;9.30;99.90;;;;;;6322979;22;38714;-80
2024/03/21 04:28:59;;;;;;;23.57;16.17;;;9.30;99.90;;;;;;6323217;22;39675;-80
2024/03/21 04:31:27;;;;;;;28.00;15.30;;;9.30;99.90;;;;;;6295037;22;38803;-80
2024/03/21 04:33:53;;;;;;;21.73;14.27;;;9.30;99.90;;;;;;6294959;22;39193;-80
2024/03/21 04:36:19;;;;;;;23.03;14.00;;;9.30;99.90;;;;;;6321900;22;40135;-81
2024/03/21 04:38:45;;;;;;;26.77;15.43;;;9.30;99.90;;;;;;6323640;22;39213;-81
2024/03/21 04:41:11;;;;;;;16.77;11.83;;;9.30;99.90;;;;;;6297731;22;37177;-81
2024/03/21 04:43:38;;;;;;;14.57;10.10;;;9.30;99.90;;;;;;6329182;22;37457;-81
2024/03/21 04:46:04;;;;;;;14.83;10.53;;;9.20;99.90;;;;;;6286205;22;39228;-81
2024/03/21 04:48:30;;;;;;;12.33;7.80;;;9.20;99.90;;;;;;6330148;22;39645;-81
2024/03/21 04:50:56;;;;;;;15.37;8.27;;;9.30;99.90;;;;;;6336847;22;39992;-81
2024/03/21 04:53:24;;;;;;;11.23;7.13;;;9.20;99.90;;;;;;6278349;22;37309;-81
2024/03/21 04:55:51;;;;;;;18.33;7.90;;;9.10;99.90;;;;;;6331568;22;39566;-81
2024/03/21 04:58:17;;;;;;;12.10;6.87;;;9.10;99.90;;;;;;6337930;22;39958;-81
2024/03/21 05:00:44;;;;;;;11.07;5.77;;;9.10;99.90;;;;;;6339751;22;39728;-81
2024/03/21 05:03:12;;;;;;;10.83;6.67;;;9.10;99.90;;;;;;6327489;22;37848;-81
2024/03/21 05:05:38;;;;;;;7.97;5.23;;;9.20;99.90;;;;;;6324049;22;38891;-81
2024/03/21 05:08:05;;;;;;;12.90;6.20;;;9.20;99.90;;;;;;6297345;22;37622;-81
2024/03/21 05:10:32;;;;;;;11.47;6.80;;;9.20;99.90;;;;;;6328133;22;39222;-80
2024/03/21 05:12:58;;;;;;;8.47;6.20;;;9.20;99.90;;;;;;6324113;22;37944;-81
2024/03/21 05:15:24;;;;;;;5.67;4.60;;;9.20;99.90;;;;;;6299413;22;37987;-82
2024/03/21 05:17:50;;;;;;;12.57;5.10;;;9.20;99.90;;;;;;6327703;22;38635;-81
2024/03/21 05:20:16;;;;;;;5.93;2.40;;;9.30;99.90;;;;;;6301817;22;38272;-81
2024/03/21 05:22:44;;;;;;;7.00;2.30;;;9.20;99.90;;;;;;6307039;22;37190;-81
2024/03/21 05:25:11;;;;;;;8.10;2.00;;;9.20;99.90;;;;;;6305569;22;37605;-81
2024/03/21 05:27:37;;;;;;;7.47;1.90;;;9.20;99.90;;;;;;6305501;22;37585;-81
2024/03/21 05:30:04;;;;;;;11.13;2.33;;;9.30;99.90;;;;;;6306057;22;39080;-82
2024/03/21 05:32:31;;;;;;;7.77;2.17;;;9.30;99.90;;;;;;6301068;22;36247;-81
2024/03/21 05:34:57;;;;;;;7.90;1.50;;;9.30;99.80;;;;;;6297571;22;39224;-81
2024/03/21 05:37:23;;;;;;;5.73;1.60;;;9.30;99.90;;;;;;6294271;22;38923;-81
2024/03/21 05:39:49;;;;;;;10.03;1.47;;;9.20;97.10;;;;;;6323850;22;39735;-81
2024/03/21 05:42:17;;;;;;;6.40;1.60;;;9.20;95.70;;;;;;6295450;22;35882;-82
2024/03/21 05:44:44;;;;;;;5.87;1.60;;;9.10;94.00;;;;;;6297934;22;37868;-81
2024/03/21 05:47:23;;;;;;;7.57;1.40;;;9.10;95.20;;;;;;6327404;22;38724;-81
2024/03/21 05:49:50;;;;;;;10.97;1.50;;;9.20;95.60;;;;;;6305513;22;37981;-80
2024/03/21 05:52:17;;;;;;;4.67;1.20;;;9.20;95.80;;;;;;6303674;22;37384;-82
2024/03/21 05:54:49;;;;;;;6.67;1.23;;;9.20;94.90;;;;;;6301335;22;37849;-82
2024/03/21 05:57:15;;;;;;;11.97;1.73;;;9.10;97.10;;;;;;6299257;22;39140;-81
2024/03/21 05:59:41;;;;;;;8.27;1.63;;;9.10;97.40;;;;;;6304830;22;38959;-82
2024/03/21 06:02:08;;;;;;;9.63;2.10;;;9.10;97.40;;;;;;6327096;22;36963;-79
2024/03/21 06:04:35;;;;;;;5.87;1.50;;;9.10;95.60;;;;;;6301561;22;40456;-82
2024/03/21 06:07:02;;;;;;;9.07;1.57;;;9.10;96.70;;;;;;6307246;22;39141;-83
2024/03/21 06:09:34;;;;;;;8.33;2.07;;;9.10;96.10;;;;;;6331955;22;38487;-82
2024/03/21 06:12:00;;;;;;;6.90;1.75;;;9.10;97.00;;;;;;6334939;22;38811;-83
2024/03/21 06:14:26;;;;;;;7.23;1.57;;;9.10;97.50;;;;;;6338181;22;39730;-81
2024/03/21 06:16:52;;;;;;;9.77;2.30;;;9.10;97.80;;;;;;6301600;22;38968;-80
2024/03/21 06:19:18;;;;;;;7.03;1.60;;;9.10;96.80;;;;;;6322522;22;39362;-80
2024/03/21 06:21:45;;;;;;;20.67;2.07;;;9.10;98.60;;;;;;6295544;22;37719;-80
2024/03/21 06:24:11;;;;;;;6.67;1.53;;;9.10;98.30;;;;;;6295635;22;37709;-80
2024/03/21 06:26:37;;;;;;;10.03;1.60;;;9.10;96.30;;;;;;6327258;22;40483;-81
2024/03/21 06:29:03;;;;;;;4.87;1.63;;;9.10;94.10;;;;;;6292160;22;37928;-80
2024/03/21 06:31:30;;;;;;;8.33;2.10;;;9.10;93.70;;;;;;6290383;22;36181;-80
2024/03/21 06:33:56;;;;;;;11.43;1.93;;;9.20;93.70;;;;;;6293843;22;37768;-80
2024/03/21 06:36:23;;;;;;;7.93;1.90;;;9.20;94.10;;;;;;6294694;22;37646;-80
2024/03/21 06:38:51;;;;;;;10.60;2.10;;;9.20;93.00;;;;;;6301809;22;37113;-80
2024/03/21 06:41:17;;;;;;;9.60;1.17;;;9.10;89.50;;;;;;6333610;22;37919;-81
2024/03/21 06:43:44;;;;;;;12.13;1.57;;;9.00;90.30;;;;;;6329494;22;39724;-80
2024/03/21 06:46:17;;;;;;;11.43;2.07;;;8.90;95.00;;;;;;6331202;22;38736;-80
2024/03/21 06:48:46;;;;;;;7.33;1.40;;;8.90;96.20;;;;;;6328241;22;38973;-80
2024/03/21 06:51:12;;;;;;;5.67;1.60;;;9.00;96.50;;;;;;6323024;22;37952;-80
2024/03/21 06:53:39;;;;;;;7.97;1.40;;;9.00;96.50;;;;;;6300621;22;37904;-81
2024/03/21 06:56:14;;;;;;;5.83;1.50;;;9.00;97.60;;;;;;6299686;22;39066;-82
2024/03/21 06:58:52;;;;;;;7.83;2.03;;;9.10;99.10;;;;;;6308674;22;37625;-81
2024/03/21 07:01:19;;;;;;;7.07;2.07;;;9.20;96.40;;;;;;6294250;22;38738;-80
2024/03/21 07:03:45;;;;;;;11.30;1.80;;;9.10;90.10;;;;;;6307835;22;38173;-81
2024/03/21 07:06:21;;;;;;;3.27;1.23;;;9.10;92.80;;;;;;6307514;22;40554;-81
2024/03/21 07:08:47;;;;;;;6.83;1.43;;;9.10;91.90;;;;;;6308626;22;38631;-80
2024/03/21 07:11:15;;;;;;;11.23;1.70;;;9.10;91.00;;;;;;6311230;22;38852;-80
2024/03/21 07:13:57;;;;;;;7.60;1.60;;;9.20;91.80;;;;;;6312966;22;38959;-81
2024/03/21 07:17:13;;;;;;;8.60;1.70;;;9.20;92.40;;;;;;6310744;22;38485;-81
2024/03/21 07:19:40;;;;;;;7.23;1.97;;;9.30;92.00;;;;;;6339226;22;50052;-81
2024/03/21 07:22:31;;;;;;;6.10;1.97;;;9.40;86.80;;;;;;6312330;22;37503;-81
2024/03/21 07:25:06;;;;;;;5.27;2.10;;;9.30;73.60;;;;;;6314242;22;39306;-80
2024/03/21 07:27:47;;;;;;;6.70;1.90;;;9.30;74.90;;;;;;6339952;22;49885;-80
2024/03/21 07:30:21;;;;;;;7.97;1.60;;;9.30;75.70;;;;;;6312702;22;38260;-81
2024/03/21 07:36:19;;;;;;;11.43;2.43;;;9.30;78.80;;;;;;6337064;22;50068;-81
2024/03/21 07:42:17;;;;;;;7.85;2.00;;;9.30;67.10;;;;;;6338392;22;50589;-80
2024/03/21 07:45:08;;;;;;;8.03;1.63;;;9.30;71.10;;;;;;6342012;22;38621;-81
2024/03/21 07:51:24;;;;;;;5.88;1.65;;;9.30;68.30;;;;;;6340162;22;50712;-80
2024/03/21 07:54:29;;;;;;;5.30;1.50;;;9.30;57.00;;;;;;6312992;22;48212;-81
2024/03/21 07:57:06;;;;;;;7.63;2.43;;;9.20;61.70;;;;;;6313686;22;48422;-81
2024/03/21 08:02:09;;;;;;;8.70;2.30;;;9.40;67.30;;;;;;6327927;22;20072;-82
2024/03/21 08:04:35;;;;;;;4.30;1.40;;;9.40;47.80;;;;;;6312121;22;39508;-81
2024/03/21 08:07:05;;;;;;;5.33;1.87;;;9.40;45.50;;;;;;6307456;22;37478;-81
2024/03/21 08:09:33;;;;;;;8.45;1.38;;;9.50;47.60;;;;;;6316220;22;49907;-81
2024/03/21 08:12:13;;;;;;;6.68;1.70;;;9.60;36.90;;;;;;6294431;22;40402;-81
2024/03/21 08:14:45;;;;;;;4.68;1.85;;;9.60;31.30;;;;;;6311758;22;48453;-81
2024/03/21 08:17:23;;;;;;;;;;;9.80;31.40;;;;;;6314076;22;36171;-81
2024/03/21 08:19:53;;;;;;;6.15;1.45;;;9.90;31.10;;;;;;6341022;22;39388;-79
2024/03/21 08:22:35;;;;;;;5.63;1.50;;;10.20;28.50;;;;;;6311775;22;38026;-81
2024/03/21 08:25:19;;;;;;;8.77;1.77;;;10.30;10.40;;;;;;6313534;22;37484;-80
2024/03/21 08:28:07;;;;;;;6.55;1.75;;;10.30;5.30;;;;;;6311954;22;47311;-82
2024/03/21 08:30:35;;;;;;;5.38;1.80;;;10.40;4.00;;;;;;6337734;22;50227;-80
2024/03/21 08:33:02;;;;;;;6.53;1.58;;;10.40;3.70;;;;;;6308060;22;38026;-80
2024/03/21 08:35:28;;;;;;;12.82;2.08;;;10.50;1.00;;;;;;6301508;22;37460;-80
2024/03/21 08:38:05;;;;;;;6.55;1.70;;;10.50;1.00;;;;;;6302335;22;37760;-80
2024/03/21 08:40:32;;;;;;;3.95;1.15;;;10.60;1.00;;;;;;6306005;22;47132;-81
2024/03/21 08:43:09;;;;;;;9.07;1.77;;;10.60;1.00;;;;;;6304875;22;39041;-80
2024/03/21 08:45:36;;;;;;;7.47;1.55;;;10.60;1.00;;;;;;6305072;22;47740;-80
2024/03/21 08:48:02;;;;;;;4.88;1.23;;;10.60;1.00;;;;;;6311623;22;37155;-80
2024/03/21 08:50:52;;;;;;;5.22;1.40;;;10.50;1.00;;;;;;6339152;22;40091;-81
2024/03/21 08:53:18;;;;;;;3.00;0.85;;;10.40;1.00;;;;;;6234258;22;38674;-81
2024/03/21 08:58:26;;;;;;;5.03;1.50;;;10.90;1.00;;;;;;6322122;22;20130;-80
2024/03/21 09:01:09;;;;;;;3.95;1.00;;;11.20;1.00;;;;;;6314464;22;38708;-81
2024/03/21 09:04:05;;;;;;;5.28;0.98;;;11.00;1.00;;;;;;6313973;22;48558;-81
2024/03/21 09:06:43;;;;;;;5.80;0.98;;;11.20;1.00;;;;;;6313310;22;48119;-81
2024/03/21 09:09:10;;;;;;;5.10;0.85;;;11.40;1.00;;;;;;6310942;22;37338;-80
2024/03/21 09:11:37;;;;;;;5.47;0.80;;;11.50;1.00;;;;;;6313814;22;39304;-81
2024/03/21 09:14:06;;;;;;;5.97;1.05;;;11.50;1.00;;;;;;6313307;22;39447;-82
2024/03/21 09:16:32;;;;;;;4.75;1.67;;;11.50;1.00;;;;;;6314326;22;38725;-81
2024/03/21 09:19:01;;;;;;;6.28;1.20;;;11.40;1.00;;;;;;6313750;22;37183;-81
2024/03/21 09:21:28;;;;;;;2.35;1.17;;;11.30;1.00;;;;;;6306744;22;40463;-80
2024/03/21 09:24:01;;;;;;;3.60;1.20;;;11.10;1.00;;;;;;6338149;22;40118;-79
2024/03/21 09:26:28;;;;;;;;;;;11.20;1.00;;;;;;6311012;22;38203;-80
2024/03/21 09:28:55;;;;;;;4.82;1.85;;;11.10;1.00;;;;;;6311047;22;37796;-81
2024/03/21 09:35:35;;;;;;;6.47;1.53;;;10.90;1.00;;;;;;6326228;22;50097;-81
2024/03/21 09:38:05;;;;;;;5.30;1.40;;;10.80;1.00;;;;;;6311599;22;49133;-81
2024/03/21 09:40:38;;;;;;;8.93;1.65;;;10.90;1.00;;;;;;6296176;22;48485;-80
2024/03/21 09:43:09;;;;;;;6.60;1.67;;;11.00;1.00;;;;;;6279405;22;39320;-80
2024/03/21 09:45:42;;;;;;;6.32;2.60;;;11.00;1.00;;;;;;6322314;22;39518;-81
2024/03/21 09:50:47;;;;;;;3.95;2.03;;;11.10;1.00;;;;;;6324011;22;20015;-81
2024/03/21 09:53:17;;;;;;;13.50;2.25;;;11.20;1.00;;;;;;6324243;22;39258;-79
2024/03/21 09:55:44;;;;;;;7.97;2.25;;;11.20;1.00;;;;;;6302561;22;38265;-80
2024/03/21 09:58:12;;;;;;;4.10;1.63;;;11.10;1.00;;;;;;6325597;22;39694;-80
2024/03/21 10:00:41;;;;;;;9.85;1.98;;;11.00;1.00;;;;;;6293020;22;36190;-74
2024/03/21 10:03:13;;;;;;;8.25;2.00;;;10.90;1.00;;;;;;6294119;22;38144;-75
2024/03/21 10:05:47;;;;;;;5.82;2.10;;;11.00;1.00;;;;;;6318862;22;39655;-76
2024/03/21 10:08:16;;;;;;;7.07;1.90;;;11.20;1.00;;;;;;6312674;22;38396;-77
2024/03/21 10:10:53;;;;;;;8.85;2.45;;;11.20;1.00;;;;;;6274109;22;36960;-81
2024/03/21 10:13:56;;;;;;;8.13;3.22;;;11.10;1.00;;;;;;6283996;22;39607;-81
2024/03/21 10:20:14;;;;;;;7.68;6.00;;;10.90;1.00;;;;;;6246106;22;50707;-81
2024/03/21 10:23:07;;;;;;;5.95;3.97;;;11.20;1.00;;;;;;6230315;22;38841;-82
2024/03/21 10:25:37;;;;;;;5.13;2.97;;;11.20;1.00;;;;;;6271435;22;49342;-82
2024/03/21 10:28:23;;;;;;;8.95;3.13;;;11.00;1.00;;;;;;6250228;22;39377;-80
2024/03/21 10:30:55;;;;;;;6.50;3.28;;;11.00;1.00;;;;;;6215183;22;48398;-82
2024/03/21 10:33:33;;;;;;;7.28;5.80;;;10.90;1.00;;;;;;6235153;22;38044;-81
2024/03/21 10:36:02;;;;;;;12.48;5.75;;;10.80;1.00;;;;;;6279965;22;40245;-81
2024/03/21 10:38:42;;;;;;;8.70;6.07;;;10.90;1.00;;;;;;6267419;22;48325;-80
2024/03/21 10:41:27;;;;;;;10.45;6.32;;;10.90;1.00;;;;;;6298468;22;38927;-81
2024/03/21 10:46:46;;;;;;;10.40;6.70;;;11.00;1.00;;;;;;6324526;22;20040;-81
2024/03/21 10:49:15;;;;;;;10.07;6.57;;;10.90;1.00;;;;;;6312344;22;39167;-82
2024/03/21 10:51:58;;;;;;;10.23;6.00;;;11.00;1.00;;;;;;6308349;22;39100;-81
2024/03/21 10:54:41;;;;;;;15.95;6.75;;;11.00;1.00;;;;;;6326084;22;38638;-80
2024/03/21 11:11:03;;;;;;;5.40;4.13;;;11.50;1.00;;;;;;6267058;22;20076;-81
2024/03/21 11:13:30;;;;;;;9.05;4.93;;;11.50;1.00;;;;;;6298543;22;48365;-82
2024/03/21 11:15:57;;;;;;;6.50;4.50;;;11.50;1.00;;;;;;6297839;22;37578;-82
2024/03/21 11:18:29;;;;;;;9.85;4.90;;;11.60;1.00;;;;;;6247709;22;38323;-80
2024/03/21 11:20:56;;;;;;;8.85;4.88;;;11.70;1.00;;;;;;6291026;22;38865;-81
2024/03/21 11:23:29;;;;;;;8.10;5.18;;;11.40;1.00;;;;;;6309753;22;39151;-82
2024/03/21 11:25:55;;;;;;;7.28;5.18;;;11.40;1.00;;;;;;6281049;22;36292;-82
2024/03/21 11:28:52;;;;;;;7.35;4.70;;;11.40;1.00;;;;;;6291011;22;37963;-82
2024/03/21 11:32:08;;;;;;;8.85;5.20;;;11.40;1.00;;;;;;6337934;22;40308;-80
2024/03/21 11:34:37;;;;;;;6.55;5.00;;;11.30;1.00;;;;;;6298394;22;48854;-81
2024/03/21 11:37:30;;;;;;;7.65;5.35;;;11.20;1.00;;;;;;6333451;22;38086;-81
2024/03/21 11:42:34;;;;;;;9.10;5.85;;;11.30;1.00;;;;;;6331476;22;20059;-81
2024/03/21 11:45:19;;;;;;;11.48;6.70;;;11.20;1.00;;;;;;6299451;22;39012;-81
2024/03/21 11:53:44;;;;;;;7.97;6.03;;;11.10;1.00;;;;;;6265512;22;20019;-81
2024/03/21 11:56:13;;;;;;;10.93;4.45;;;11.10;1.00;;;;;;6266716;22;40022;-79
2024/03/21 11:58:39;;;;;;;8.10;3.47;;;11.00;1.00;;;;;;6295239;22;37638;-81
2024/03/21 12:01:21;;;;;;;9.55;4.25;;;11.10;1.00;;;;;;6316574;22;39582;-81
2024/03/21 12:03:50;;;;;;;6.35;3.92;;;11.00;1.00;;;;;;6254217;22;41089;-80
2024/03/21 12:06:23;;;;;;;6.30;4.10;;;11.10;1.00;;;;;;6313213;22;38717;-81
2024/03/21 12:11:52;;;;;;;5.68;2.97;;;11.10;1.00;;;;;;6303949;22;20052;-82
2024/03/21 12:14:19;;;;;;;6.80;2.85;;;11.00;1.00;;;;;;6288155;22;39706;-82
2024/03/21 12:16:54;;;;;;;6.70;3.35;;;10.90;1.00;;;;;;6287183;22;39002;-82
2024/03/21 12:23:15;;;;;;;4.95;3.25;;;10.90;1.00;;;;;;6314995;22;50571;-81
2024/03/21 12:25:50;;;;;;;3.97;3.15;;;10.90;1.00;;;;;;6255385;22;49277;-81
2024/03/21 12:28:25;;;;;;;5.68;2.97;;;11.00;1.00;;;;;;6264819;22;39635;-81
2024/03/21 12:30:54;;;;;;;3.63;2.50;;;11.00;1.00;;;;;;6269369;22;39218;-80
2024/03/21 12:33:44;;;;;;;3.83;3.40;;;11.10;1.00;;;;;;6269685;22;40099;-82
2024/03/21 12:36:18;;;;;;;4.43;3.00;;;11.20;1.00;;;;;;6279038;22;40275;-81
2024/03/21 12:44:51;;;;;;;3.70;3.03;;;11.10;1.00;;;;;;6341044;22;39975;-82
2024/03/21 12:47:18;;;;;;;5.68;2.92;;;11.00;1.00;;;;;;6284359;22;39549;-80
2024/03/21 12:57:37;;;;;;;6.80;2.97;;;11.40;1.00;;;;;;6306289;22;20104;-81
2024/03/21 13:02:56;;;;;;;4.05;2.35;;;11.70;1.00;;;;;;6298709;22;19999;-82
2024/03/21 13:05:36;;;;;;;3.45;1.88;;;11.70;1.00;;;;;;6259230;22;49985;-80
2024/03/21 13:08:04;;;;;;;3.65;2.33;;;12.00;1.00;;;;;;6223297;22;40165;-81
2024/03/21 13:11:15;;;;;;;6.25;2.17;;;12.00;1.00;;;;;;6325867;22;40040;-81
2024/03/21 13:13:56;;;;;;;4.30;2.20;;;12.00;1.00;;;;;;6308630;22;50086;-82
2024/03/21 13:16:26;;;;;;;4.88;2.33;;;12.10;1.00;;;;;;6270157;22;39264;-80
2024/03/21 13:19:29;;;;;;;4.85;2.50;;;12.10;1.00;;;;;;6253015;22;39561;-82
2024/03/21 13:22:07;;;;;;;4.35;2.85;;;12.10;1.00;;;;;;6228179;22;47598;-81
2024/03/21 13:24:36;;;;;;;4.97;3.20;;;11.80;1.00;;;;;;6237270;22;48037;-81
2024/03/21 13:30:24;;;;;;;6.00;3.00;;;11.80;1.00;;;;;;6328264;22;20068;-81
2024/03/21 13:32:50;;;;;;;3.90;2.95;;;11.90;1.00;;;;;;6299936;22;48923;-81
2024/03/21 13:35:23;;;;;;;5.90;2.63;;;11.90;1.00;;;;;;6311429;22;37462;-81
2024/03/21 13:38:02;;;;;;;5.63;3.35;;;11.90;1.00;;;;;;6300664;22;39306;-81
2024/03/21 13:40:39;;;;;;;6.00;3.17;;;11.80;1.00;;;;;;6338238;22;50197;-81
2024/03/21 13:43:17;;;;;;;4.85;2.95;;;11.90;1.00;;;;;;6336669;22;39792;-81
2024/03/21 13:45:51;;;;;;;4.45;3.08;;;11.90;1.00;;;;;;6312540;22;37214;-81
2024/03/21 13:48:17;;;;;;;5.78;2.60;;;12.00;1.00;;;;;;6307821;22;38942;-81
2024/03/21 13:50:48;;;;;;;6.47;2.30;;;12.00;1.00;;;;;;6309129;22;38784;-80
2024/03/21 13:53:25;;;;;;;6.40;2.92;;;12.10;1.00;;;;;;6314559;22;39465;-81
2024/03/21 13:55:51;;;;;;;4.80;2.55;;;12.00;1.00;;;;;;6281194;22;36868;-81
2024/03/21 13:58:18;;;;;;;3.33;2.60;;;12.00;1.00;;;;;;6261114;22;38325;-81
2024/03/21 14:01:00;;;;;;;3.75;2.38;;;12.20;1.00;;;;;;6304117;22;39146;-80
2024/03/21 14:03:34;;;;;;;4.75;2.50;;;12.30;1.00;;;;;;6297818;22;38311;-80
2024/03/21 14:06:04;;;;;;;4.00;2.78;;;12.50;1.00;;;;;;6320061;22;37964;-82
2024/03/21 14:08:32;;;;;;;4.38;2.80;;;12.70;1.00;;;;;;6309793;22;48712;-80
2024/03/21 14:11:04;;;;;;;5.38;3.28;;;12.50;1.00;;;;;;6258536;22;40062;-81
2024/03/21 14:19:29;;;;;;;8.35;3.42;;;12.10;1.00;;;;;;6287364;22;50132;-78
2024/03/21 14:22:14;;;;;;;6.00;2.90;;;12.10;1.00;;;;;;6291844;22;40073;-80
2024/03/21 14:24:41;;;;;;;5.05;2.95;;;12.10;1.00;;;;;;6277305;22;39487;-78
2024/03/21 14:27:07;;;;;;;4.15;2.83;;;11.90;1.00;;;;;;6309550;22;37030;-78
2024/03/21 14:29:33;;;;;;;4.68;2.90;;;11.90;1.00;;;;;;6280825;22;37557;-78
2024/03/21 14:31:59;;;;;;;5.95;3.05;;;11.80;1.00;;;;;;6280135;22;38806;-78
2024/03/21 14:34:26;;;;;;;3.72;2.88;;;11.90;1.00;;;;;;6279271;22;38805;-78
2024/03/21 14:37:06;;;;;;;4.28;3.25;;;12.00;1.00;;;;;;6315131;22;37844;-81
2024/03/21 14:40:01;;;;;;;6.18;3.28;;;11.80;1.00;;;;;;6339512;22;40090;-81